sensor_id;sensor_type;location;lat;lon;timestamp;P1;durP1;ratioP1;P2;durP2;ratioP2
71732;SDS011;65965;43.502;3.716;2022-12-18T00:01:01;20.90;;;11.70;;
71732;SDS011;65965;43.502;3.716;2022-12-18T00:06:08;22.25;;;11.80;;
71732;SDS011;65965;43.502;3.716;2022-12-18T00:08:34;23.23;;;12.25;;
71732;SDS011;65965;43.502;3.716;2022-12-18T00:11:03;27.23;;;14.27;;
71732;SDS011;65965;43.502;3.716;2022-12-18T00:13:31;24.95;;;15.95;;
71732;SDS011;65965;43.502;3.716;2022-12-18T00:16:01;25.58;;;14.32;;
71732;SDS011;65965;43.502;3.716;2022-12-18T00:18:27;22.98;;;13.65;;
71732;SDS011;65965;43.502;3.716;2022-12-18T00:20:53;25.33;;;13.40;;
71732;SDS011;65965;43.502;3.716;2022-12-18T00:23:23;24.27;;;13.75;;
71732;SDS011;65965;43.502;3.716;2022-12-18T00:25:48;24.75;;;13.85;;
71732;SDS011;65965;43.502;3.716;2022-12-18T00:28:14;25.80;;;14.15;;
71732;SDS011;65965;43.502;3.716;2022-12-18T00:30:40;24.50;;;13.73;;
71732;SDS011;65965;43.502;3.716;2022-12-18T00:33:06;29.45;;;16.40;;
71732;SDS011;65965;43.502;3.716;2022-12-18T00:35:32;25.33;;;14.77;;
71732;SDS011;65965;43.502;3.716;2022-12-18T00:37:57;25.48;;;15.93;;
71732;SDS011;65965;43.502;3.716;2022-12-18T00:40:23;26.73;;;15.23;;
71732;SDS011;65965;43.502;3.716;2022-12-18T00:42:49;27.98;;;16.38;;
71732;SDS011;65965;43.502;3.716;2022-12-18T00:45:29;27.55;;;15.60;;
71732;SDS011;65965;43.502;3.716;2022-12-18T00:47:56;28.30;;;14.68;;
71732;SDS011;65965;43.502;3.716;2022-12-18T00:50:22;26.75;;;15.00;;
71732;SDS011;65965;43.502;3.716;2022-12-18T00:52:49;25.73;;;13.85;;
71732;SDS011;65965;43.502;3.716;2022-12-18T00:55:16;24.67;;;14.00;;
71732;SDS011;65965;43.502;3.716;2022-12-18T00:57:42;23.15;;;12.30;;
71732;SDS011;65965;43.502;3.716;2022-12-18T01:00:08;28.48;;;14.98;;
71732;SDS011;65965;43.502;3.716;2022-12-18T01:02:37;23.50;;;13.65;;
71732;SDS011;65965;43.502;3.716;2022-12-18T01:05:03;29.15;;;15.38;;
71732;SDS011;65965;43.502;3.716;2022-12-18T01:07:29;29.58;;;15.68;;
71732;SDS011;65965;43.502;3.716;2022-12-18T01:09:55;28.02;;;15.68;;
71732;SDS011;65965;43.502;3.716;2022-12-18T01:12:20;29.85;;;15.68;;
71732;SDS011;65965;43.502;3.716;2022-12-18T01:14:46;28.35;;;15.90;;
71732;SDS011;65965;43.502;3.716;2022-12-18T01:17:12;25.33;;;15.27;;
71732;SDS011;65965;43.502;3.716;2022-12-18T01:19:38;24.52;;;13.60;;
71732;SDS011;65965;43.502;3.716;2022-12-18T01:22:03;28.35;;;14.63;;
71732;SDS011;65965;43.502;3.716;2022-12-18T01:24:29;22.38;;;11.80;;
71732;SDS011;65965;43.502;3.716;2022-12-18T01:26:55;23.48;;;11.98;;
71732;SDS011;65965;43.502;3.716;2022-12-18T01:29:22;21.08;;;11.27;;
71732;SDS011;65965;43.502;3.716;2022-12-18T01:31:48;21.98;;;11.32;;
71732;SDS011;65965;43.502;3.716;2022-12-18T01:34:14;21.42;;;10.05;;
71732;SDS011;65965;43.502;3.716;2022-12-18T01:36:39;20.70;;;10.57;;
71732;SDS011;65965;43.502;3.716;2022-12-18T01:39:06;18.50;;;9.40;;
71732;SDS011;65965;43.502;3.716;2022-12-18T01:41:35;17.23;;;9.02;;
71732;SDS011;65965;43.502;3.716;2022-12-18T01:47:26;17.83;;;8.52;;
71732;SDS011;65965;43.502;3.716;2022-12-18T01:50:43;17.40;;;8.23;;
71732;SDS011;65965;43.502;3.716;2022-12-18T01:52:53;16.58;;;8.43;;
71732;SDS011;65965;43.502;3.716;2022-12-18T01:55:31;16.25;;;8.13;;
71732;SDS011;65965;43.502;3.716;2022-12-18T01:58:01;18.35;;;9.77;;
71732;SDS011;65965;43.502;3.716;2022-12-18T02:00:29;14.10;;;6.82;;
71732;SDS011;65965;43.502;3.716;2022-12-18T02:02:55;14.88;;;7.05;;
71732;SDS011;65965;43.502;3.716;2022-12-18T02:05:29;16.60;;;7.72;;
71732;SDS011;65965;43.502;3.716;2022-12-18T02:20:00;15.05;;;7.07;;
71732;SDS011;65965;43.502;3.716;2022-12-18T02:27:38;15.90;;;7.00;;
71732;SDS011;65965;43.502;3.716;2022-12-18T02:30:06;15.82;;;7.80;;
71732;SDS011;65965;43.502;3.716;2022-12-18T02:32:43;14.63;;;7.00;;
71732;SDS011;65965;43.502;3.716;2022-12-18T02:35:13;14.07;;;6.80;;
71732;SDS011;65965;43.502;3.716;2022-12-18T02:37:42;16.10;;;7.75;;
71732;SDS011;65965;43.502;3.716;2022-12-18T02:40:10;16.08;;;8.25;;
71732;SDS011;65965;43.502;3.716;2022-12-18T02:42:37;17.35;;;8.52;;
71732;SDS011;65965;43.502;3.716;2022-12-18T02:45:03;16.60;;;8.50;;
71732;SDS011;65965;43.502;3.716;2022-12-18T02:47:30;16.20;;;8.20;;
71732;SDS011;65965;43.502;3.716;2022-12-18T02:52:41;18.33;;;9.18;;
71732;SDS011;65965;43.502;3.716;2022-12-18T02:55:34;18.17;;;8.95;;
71732;SDS011;65965;43.502;3.716;2022-12-18T02:58:51;15.90;;;7.70;;
71732;SDS011;65965;43.502;3.716;2022-12-18T03:03:33;16.27;;;8.30;;
71732;SDS011;65965;43.502;3.716;2022-12-18T03:06:06;16.83;;;8.18;;
71732;SDS011;65965;43.502;3.716;2022-12-18T03:08:42;16.92;;;8.75;;
71732;SDS011;65965;43.502;3.716;2022-12-18T03:11:12;18.55;;;9.02;;
71732;SDS011;65965;43.502;3.716;2022-12-18T03:13:40;18.17;;;8.98;;
71732;SDS011;65965;43.502;3.716;2022-12-18T03:16:22;19.05;;;9.25;;
71732;SDS011;65965;43.502;3.716;2022-12-18T03:19:01;20.20;;;8.73;;
71732;SDS011;65965;43.502;3.716;2022-12-18T03:21:33;19.75;;;8.95;;
71732;SDS011;65965;43.502;3.716;2022-12-18T03:24:06;19.80;;;10.15;;
71732;SDS011;65965;43.502;3.716;2022-12-18T03:26:34;18.67;;;9.43;;
71732;SDS011;65965;43.502;3.716;2022-12-18T03:29:12;17.88;;;8.98;;
71732;SDS011;65965;43.502;3.716;2022-12-18T03:31:56;16.10;;;8.52;;
71732;SDS011;65965;43.502;3.716;2022-12-18T03:34:32;18.67;;;9.07;;
71732;SDS011;65965;43.502;3.716;2022-12-18T03:37:03;17.73;;;8.63;;
71732;SDS011;65965;43.502;3.716;2022-12-18T03:39:30;17.63;;;8.60;;
71732;SDS011;65965;43.502;3.716;2022-12-18T03:47:13;15.45;;;7.07;;
71732;SDS011;65965;43.502;3.716;2022-12-18T03:50:00;14.10;;;6.43;;
71732;SDS011;65965;43.502;3.716;2022-12-18T03:55:56;14.18;;;6.82;;
71732;SDS011;65965;43.502;3.716;2022-12-18T03:58:25;15.85;;;7.63;;
71732;SDS011;65965;43.502;3.716;2022-12-18T04:00:52;12.98;;;6.45;;
71732;SDS011;65965;43.502;3.716;2022-12-18T04:03:21;16.17;;;7.32;;
71732;SDS011;65965;43.502;3.716;2022-12-18T04:05:49;17.58;;;7.80;;
71732;SDS011;65965;43.502;3.716;2022-12-18T04:08:17;15.50;;;7.38;;
71732;SDS011;65965;43.502;3.716;2022-12-18T04:10:44;16.85;;;7.97;;
71732;SDS011;65965;43.502;3.716;2022-12-18T04:13:10;15.13;;;6.50;;
71732;SDS011;65965;43.502;3.716;2022-12-18T04:15:36;16.27;;;7.18;;
71732;SDS011;65965;43.502;3.716;2022-12-18T04:18:03;14.50;;;6.63;;
71732;SDS011;65965;43.502;3.716;2022-12-18T04:20:28;13.40;;;6.40;;
71732;SDS011;65965;43.502;3.716;2022-12-18T04:22:55;14.05;;;6.50;;
71732;SDS011;65965;43.502;3.716;2022-12-18T04:25:20;14.68;;;7.13;;
71732;SDS011;65965;43.502;3.716;2022-12-18T04:27:46;13.60;;;6.45;;
71732;SDS011;65965;43.502;3.716;2022-12-18T04:30:12;14.55;;;7.07;;
71732;SDS011;65965;43.502;3.716;2022-12-18T04:32:37;15.45;;;6.78;;
71732;SDS011;65965;43.502;3.716;2022-12-18T04:35:03;13.98;;;7.07;;
71732;SDS011;65965;43.502;3.716;2022-12-18T04:37:31;13.68;;;6.22;;
71732;SDS011;65965;43.502;3.716;2022-12-18T04:39:57;18.95;;;6.88;;
71732;SDS011;65965;43.502;3.716;2022-12-18T04:42:22;14.43;;;6.22;;
71732;SDS011;65965;43.502;3.716;2022-12-18T04:44:48;15.10;;;6.68;;
71732;SDS011;65965;43.502;3.716;2022-12-18T04:47:14;13.23;;;5.55;;
71732;SDS011;65965;43.502;3.716;2022-12-18T04:49:40;13.30;;;6.03;;
71732;SDS011;65965;43.502;3.716;2022-12-18T04:52:08;13.65;;;6.38;;
71732;SDS011;65965;43.502;3.716;2022-12-18T04:54:34;13.90;;;6.07;;
71732;SDS011;65965;43.502;3.716;2022-12-18T04:57:00;14.07;;;6.63;;
71732;SDS011;65965;43.502;3.716;2022-12-18T04:59:25;15.02;;;5.80;;
71732;SDS011;65965;43.502;3.716;2022-12-18T05:01:51;14.52;;;6.63;;
71732;SDS011;65965;43.502;3.716;2022-12-18T05:04:17;14.80;;;5.70;;
71732;SDS011;65965;43.502;3.716;2022-12-18T05:06:42;12.95;;;5.90;;
71732;SDS011;65965;43.502;3.716;2022-12-18T05:09:08;12.80;;;5.45;;
71732;SDS011;65965;43.502;3.716;2022-12-18T05:11:37;13.70;;;6.10;;
71732;SDS011;65965;43.502;3.716;2022-12-18T05:14:03;14.88;;;6.25;;
71732;SDS011;65965;43.502;3.716;2022-12-18T05:16:28;14.35;;;6.22;;
71732;SDS011;65965;43.502;3.716;2022-12-18T05:18:54;15.18;;;7.05;;
71732;SDS011;65965;43.502;3.716;2022-12-18T05:21:20;12.98;;;6.63;;
71732;SDS011;65965;43.502;3.716;2022-12-18T05:23:46;11.80;;;5.50;;
71732;SDS011;65965;43.502;3.716;2022-12-18T05:26:15;13.60;;;6.03;;
71732;SDS011;65965;43.502;3.716;2022-12-18T05:28:43;13.13;;;6.28;;
71732;SDS011;65965;43.502;3.716;2022-12-18T05:31:09;13.15;;;6.38;;
71732;SDS011;65965;43.502;3.716;2022-12-18T05:33:35;12.05;;;5.60;;
71732;SDS011;65965;43.502;3.716;2022-12-18T05:36:01;14.80;;;6.78;;
71732;SDS011;65965;43.502;3.716;2022-12-18T05:38:29;12.15;;;5.65;;
71732;SDS011;65965;43.502;3.716;2022-12-18T05:40:56;13.95;;;6.88;;
71732;SDS011;65965;43.502;3.716;2022-12-18T05:43:23;17.17;;;7.28;;
71732;SDS011;65965;43.502;3.716;2022-12-18T05:45:49;14.13;;;6.82;;
71732;SDS011;65965;43.502;3.716;2022-12-18T05:48:16;13.88;;;6.57;;
71732;SDS011;65965;43.502;3.716;2022-12-18T05:50:43;12.25;;;5.82;;
71732;SDS011;65965;43.502;3.716;2022-12-18T05:53:10;15.23;;;7.20;;
71732;SDS011;65965;43.502;3.716;2022-12-18T05:55:39;14.55;;;7.47;;
71732;SDS011;65965;43.502;3.716;2022-12-18T05:58:06;16.33;;;7.80;;
71732;SDS011;65965;43.502;3.716;2022-12-18T06:00:34;17.23;;;7.10;;
71732;SDS011;65965;43.502;3.716;2022-12-18T06:03:03;13.80;;;6.95;;
71732;SDS011;65965;43.502;3.716;2022-12-18T06:05:29;13.25;;;6.40;;
71732;SDS011;65965;43.502;3.716;2022-12-18T06:08:03;14.90;;;6.85;;
71732;SDS011;65965;43.502;3.716;2022-12-18T06:10:29;14.80;;;7.40;;
71732;SDS011;65965;43.502;3.716;2022-12-18T06:12:55;15.55;;;8.23;;
71732;SDS011;65965;43.502;3.716;2022-12-18T06:15:21;15.43;;;7.10;;
71732;SDS011;65965;43.502;3.716;2022-12-18T06:17:46;14.18;;;7.25;;
71732;SDS011;65965;43.502;3.716;2022-12-18T06:20:12;14.27;;;6.70;;
71732;SDS011;65965;43.502;3.716;2022-12-18T06:22:38;12.85;;;5.57;;
71732;SDS011;65965;43.502;3.716;2022-12-18T06:25:03;13.52;;;6.00;;
71732;SDS011;65965;43.502;3.716;2022-12-18T06:27:31;15.10;;;6.50;;
71732;SDS011;65965;43.502;3.716;2022-12-18T06:29:58;16.42;;;6.72;;
71732;SDS011;65965;43.502;3.716;2022-12-18T06:32:24;19.30;;;7.57;;
71732;SDS011;65965;43.502;3.716;2022-12-18T06:34:50;13.48;;;5.70;;
71732;SDS011;65965;43.502;3.716;2022-12-18T06:37:16;14.82;;;6.95;;
71732;SDS011;65965;43.502;3.716;2022-12-18T06:39:42;14.30;;;6.47;;
71732;SDS011;65965;43.502;3.716;2022-12-18T06:42:07;14.20;;;6.47;;
71732;SDS011;65965;43.502;3.716;2022-12-18T06:44:33;13.95;;;5.65;;
71732;SDS011;65965;43.502;3.716;2022-12-18T06:46:59;13.52;;;6.40;;
71732;SDS011;65965;43.502;3.716;2022-12-18T06:49:24;12.07;;;5.40;;
71732;SDS011;65965;43.502;3.716;2022-12-18T06:51:50;13.25;;;6.15;;
71732;SDS011;65965;43.502;3.716;2022-12-18T06:54:16;13.23;;;5.72;;
71732;SDS011;65965;43.502;3.716;2022-12-18T06:56:44;13.20;;;5.68;;
71732;SDS011;65965;43.502;3.716;2022-12-18T06:59:10;13.68;;;5.80;;
71732;SDS011;65965;43.502;3.716;2022-12-18T07:01:38;11.43;;;4.97;;
71732;SDS011;65965;43.502;3.716;2022-12-18T07:04:03;12.02;;;5.32;;
71732;SDS011;65965;43.502;3.716;2022-12-18T07:06:29;13.63;;;5.38;;
71732;SDS011;65965;43.502;3.716;2022-12-18T07:08:55;11.82;;;4.80;;
71732;SDS011;65965;43.502;3.716;2022-12-18T07:11:21;12.73;;;4.93;;
71732;SDS011;65965;43.502;3.716;2022-12-18T07:13:47;12.40;;;5.60;;
71732;SDS011;65965;43.502;3.716;2022-12-18T07:18:40;13.15;;;6.97;;
71732;SDS011;65965;43.502;3.716;2022-12-18T07:21:07;16.13;;;8.52;;
71732;SDS011;65965;43.502;3.716;2022-12-18T07:23:34;17.45;;;8.45;;
71732;SDS011;65965;43.502;3.716;2022-12-18T07:26:01;18.75;;;10.85;;
71732;SDS011;65965;43.502;3.716;2022-12-18T07:28:28;13.40;;;6.72;;
71732;SDS011;65965;43.502;3.716;2022-12-18T07:30:54;14.77;;;7.57;;
71732;SDS011;65965;43.502;3.716;2022-12-18T07:33:20;13.88;;;5.63;;
71732;SDS011;65965;43.502;3.716;2022-12-18T07:35:45;13.25;;;5.40;;
71732;SDS011;65965;43.502;3.716;2022-12-18T07:38:11;13.65;;;6.82;;
71732;SDS011;65965;43.502;3.716;2022-12-18T07:40:37;12.60;;;6.07;;
71732;SDS011;65965;43.502;3.716;2022-12-18T07:43:02;14.77;;;6.68;;
71732;SDS011;65965;43.502;3.716;2022-12-18T07:45:31;15.93;;;7.80;;
71732;SDS011;65965;43.502;3.716;2022-12-18T07:47:57;17.38;;;7.78;;
71732;SDS011;65965;43.502;3.716;2022-12-18T07:50:22;15.15;;;8.38;;
71732;SDS011;65965;43.502;3.716;2022-12-18T07:52:49;15.18;;;8.18;;
71732;SDS011;65965;43.502;3.716;2022-12-18T07:55:14;15.13;;;7.00;;
71732;SDS011;65965;43.502;3.716;2022-12-18T07:57:40;10.23;;;4.82;;
71732;SDS011;65965;43.502;3.716;2022-12-18T08:00:06;11.20;;;5.13;;
71732;SDS011;65965;43.502;3.716;2022-12-18T08:02:32;13.15;;;6.25;;
71732;SDS011;65965;43.502;3.716;2022-12-18T08:04:58;16.67;;;8.95;;
71732;SDS011;65965;43.502;3.716;2022-12-18T08:07:24;17.88;;;9.02;;
71732;SDS011;65965;43.502;3.716;2022-12-18T08:09:49;20.00;;;11.18;;
71732;SDS011;65965;43.502;3.716;2022-12-18T08:12:15;14.70;;;7.53;;
71732;SDS011;65965;43.502;3.716;2022-12-18T08:14:41;9.45;;;3.88;;
71732;SDS011;65965;43.502;3.716;2022-12-18T08:17:07;9.77;;;3.75;;
71732;SDS011;65965;43.502;3.716;2022-12-18T08:19:32;14.70;;;6.15;;
71732;SDS011;65965;43.502;3.716;2022-12-18T08:21:58;11.95;;;5.65;;
71732;SDS011;65965;43.502;3.716;2022-12-18T08:24:24;12.55;;;5.85;;
71732;SDS011;65965;43.502;3.716;2022-12-18T08:26:50;14.60;;;6.95;;
71732;SDS011;65965;43.502;3.716;2022-12-18T08:29:16;13.40;;;6.45;;
71732;SDS011;65965;43.502;3.716;2022-12-18T08:31:42;12.90;;;5.88;;
71732;SDS011;65965;43.502;3.716;2022-12-18T08:34:08;14.20;;;6.82;;
71732;SDS011;65965;43.502;3.716;2022-12-18T08:36:33;15.43;;;6.75;;
71732;SDS011;65965;43.502;3.716;2022-12-18T08:38:59;29.60;;;16.10;;
71732;SDS011;65965;43.502;3.716;2022-12-18T08:41:25;26.92;;;12.90;;
71732;SDS011;65965;43.502;3.716;2022-12-18T08:43:51;10.80;;;4.35;;
71732;SDS011;65965;43.502;3.716;2022-12-18T08:46:39;15.13;;;7.22;;
71732;SDS011;65965;43.502;3.716;2022-12-18T08:51:33;16.60;;;8.10;;
71732;SDS011;65965;43.502;3.716;2022-12-18T08:53:59;12.35;;;4.75;;
71732;SDS011;65965;43.502;3.716;2022-12-18T08:56:25;11.13;;;5.15;;
71732;SDS011;65965;43.502;3.716;2022-12-18T08:58:52;12.10;;;6.85;;
71732;SDS011;65965;43.502;3.716;2022-12-18T09:01:18;12.60;;;6.07;;
71732;SDS011;65965;43.502;3.716;2022-12-18T09:03:51;11.80;;;5.82;;
71732;SDS011;65965;43.502;3.716;2022-12-18T09:06:17;15.60;;;8.32;;
71732;SDS011;65965;43.502;3.716;2022-12-18T09:08:44;14.07;;;6.97;;
71732;SDS011;65965;43.502;3.716;2022-12-18T09:11:14;14.15;;;6.47;;
71732;SDS011;65965;43.502;3.716;2022-12-18T09:13:50;14.75;;;7.25;;
71732;SDS011;65965;43.502;3.716;2022-12-18T09:16:16;22.17;;;12.80;;
71732;SDS011;65965;43.502;3.716;2022-12-18T09:18:42;13.93;;;6.97;;
71732;SDS011;65965;43.502;3.716;2022-12-18T09:21:12;16.80;;;8.35;;
71732;SDS011;65965;43.502;3.716;2022-12-18T09:26:06;13.15;;;6.88;;
71732;SDS011;65965;43.502;3.716;2022-12-18T09:28:32;12.98;;;6.30;;
71732;SDS011;65965;43.502;3.716;2022-12-18T09:30:58;13.68;;;6.60;;
71732;SDS011;65965;43.502;3.716;2022-12-18T09:33:24;12.73;;;6.05;;
71732;SDS011;65965;43.502;3.716;2022-12-18T09:35:49;12.57;;;5.75;;
71732;SDS011;65965;43.502;3.716;2022-12-18T09:38:19;13.05;;;6.15;;
71732;SDS011;65965;43.502;3.716;2022-12-18T09:40:46;14.65;;;8.35;;
71732;SDS011;65965;43.502;3.716;2022-12-18T09:43:24;12.50;;;6.28;;
71732;SDS011;65965;43.502;3.716;2022-12-18T09:46:01;12.43;;;5.70;;
71732;SDS011;65965;43.502;3.716;2022-12-18T09:48:36;13.43;;;6.55;;
71732;SDS011;65965;43.502;3.716;2022-12-18T09:51:28;14.35;;;7.05;;
71732;SDS011;65965;43.502;3.716;2022-12-18T09:54:00;13.52;;;6.30;;
71732;SDS011;65965;43.502;3.716;2022-12-18T09:56:31;13.23;;;7.00;;
71732;SDS011;65965;43.502;3.716;2022-12-18T09:59:03;14.55;;;6.95;;
71732;SDS011;65965;43.502;3.716;2022-12-18T10:01:29;12.25;;;6.25;;
71732;SDS011;65965;43.502;3.716;2022-12-18T10:03:56;13.35;;;6.28;;
71732;SDS011;65965;43.502;3.716;2022-12-18T10:13:57;14.55;;;6.65;;
71732;SDS011;65965;43.502;3.716;2022-12-18T10:19:50;13.93;;;6.40;;
71732;SDS011;65965;43.502;3.716;2022-12-18T10:22:43;12.27;;;6.00;;
71732;SDS011;65965;43.502;3.716;2022-12-18T10:28:13;14.15;;;7.20;;
71732;SDS011;65965;43.502;3.716;2022-12-18T10:30:40;13.77;;;7.40;;
71732;SDS011;65965;43.502;3.716;2022-12-18T10:33:18;13.95;;;7.30;;
71732;SDS011;65965;43.502;3.716;2022-12-18T10:35:46;13.35;;;6.32;;
71732;SDS011;65965;43.502;3.716;2022-12-18T10:40:50;14.90;;;6.97;;
71732;SDS011;65965;43.502;3.716;2022-12-18T10:46:01;16.70;;;8.68;;
71732;SDS011;65965;43.502;3.716;2022-12-18T10:48:27;16.63;;;9.52;;
71732;SDS011;65965;43.502;3.716;2022-12-18T10:50:54;14.93;;;8.88;;
71732;SDS011;65965;43.502;3.716;2022-12-18T10:53:22;14.88;;;8.23;;
71732;SDS011;65965;43.502;3.716;2022-12-18T10:55:54;14.73;;;8.52;;
71732;SDS011;65965;43.502;3.716;2022-12-18T10:58:36;14.10;;;7.57;;
71732;SDS011;65965;43.502;3.716;2022-12-18T11:01:16;13.48;;;5.40;;
71732;SDS011;65965;43.502;3.716;2022-12-18T11:06:13;12.63;;;5.50;;
71732;SDS011;65965;43.502;3.716;2022-12-18T11:08:40;13.38;;;5.93;;
71732;SDS011;65965;43.502;3.716;2022-12-18T11:11:21;13.95;;;7.28;;
71732;SDS011;65965;43.502;3.716;2022-12-18T11:16:22;14.98;;;6.93;;
71732;SDS011;65965;43.502;3.716;2022-12-18T11:18:48;15.25;;;6.63;;
71732;SDS011;65965;43.502;3.716;2022-12-18T11:21:14;15.15;;;7.68;;
71732;SDS011;65965;43.502;3.716;2022-12-18T11:23:50;19.92;;;10.77;;
71732;SDS011;65965;43.502;3.716;2022-12-18T11:26:17;20.27;;;11.90;;
71732;SDS011;65965;43.502;3.716;2022-12-18T11:28:47;17.23;;;9.80;;
71732;SDS011;65965;43.502;3.716;2022-12-18T11:34:04;15.68;;;8.90;;
71732;SDS011;65965;43.502;3.716;2022-12-18T11:36:46;14.15;;;8.02;;
71732;SDS011;65965;43.502;3.716;2022-12-18T11:44:43;14.43;;;7.90;;
71732;SDS011;65965;43.502;3.716;2022-12-18T11:47:19;17.58;;;8.43;;
71732;SDS011;65965;43.502;3.716;2022-12-18T11:49:47;17.17;;;8.93;;
71732;SDS011;65965;43.502;3.716;2022-12-18T11:52:24;15.60;;;8.45;;
71732;SDS011;65965;43.502;3.716;2022-12-18T11:54:55;23.98;;;13.20;;
71732;SDS011;65965;43.502;3.716;2022-12-18T11:57:28;17.05;;;8.73;;
71732;SDS011;65965;43.502;3.716;2022-12-18T12:05:20;16.58;;;9.55;;
71732;SDS011;65965;43.502;3.716;2022-12-18T12:08:15;15.02;;;8.13;;
71732;SDS011;65965;43.502;3.716;2022-12-18T12:19:51;17.88;;;10.93;;
71732;SDS011;65965;43.502;3.716;2022-12-18T12:24:47;22.75;;;13.70;;
71732;SDS011;65965;43.502;3.716;2022-12-18T12:31:00;22.95;;;13.00;;
71732;SDS011;65965;43.502;3.716;2022-12-18T12:33:41;21.80;;;14.02;;
71732;SDS011;65965;43.502;3.716;2022-12-18T12:38:51;16.70;;;9.52;;
71732;SDS011;65965;43.502;3.716;2022-12-18T12:41:31;20.35;;;9.98;;
71732;SDS011;65965;43.502;3.716;2022-12-18T12:44:39;16.70;;;10.40;;
71732;SDS011;65965;43.502;3.716;2022-12-18T12:47:32;18.00;;;10.00;;
71732;SDS011;65965;43.502;3.716;2022-12-18T12:50:03;19.40;;;10.57;;
71732;SDS011;65965;43.502;3.716;2022-12-18T12:52:51;19.17;;;11.35;;
71732;SDS011;65965;43.502;3.716;2022-12-18T12:55:21;16.52;;;9.25;;
71732;SDS011;65965;43.502;3.716;2022-12-18T13:00:47;18.85;;;10.27;;
71732;SDS011;65965;43.502;3.716;2022-12-18T13:03:41;17.70;;;9.60;;
71732;SDS011;65965;43.502;3.716;2022-12-18T13:06:11;18.52;;;9.73;;
71732;SDS011;65965;43.502;3.716;2022-12-18T13:08:59;15.15;;;8.57;;
71732;SDS011;65965;43.502;3.716;2022-12-18T13:14:36;17.73;;;9.45;;
71732;SDS011;65965;43.502;3.716;2022-12-18T13:19:48;19.52;;;9.82;;
71732;SDS011;65965;43.502;3.716;2022-12-18T13:22:25;19.33;;;10.05;;
71732;SDS011;65965;43.502;3.716;2022-12-18T13:25:01;15.23;;;8.57;;
71732;SDS011;65965;43.502;3.716;2022-12-18T13:38:25;17.92;;;9.20;;
71732;SDS011;65965;43.502;3.716;2022-12-18T13:41:01;37.22;;;20.40;;
71732;SDS011;65965;43.502;3.716;2022-12-18T13:43:44;23.02;;;11.27;;
71732;SDS011;65965;43.502;3.716;2022-12-18T13:51:47;20.05;;;9.70;;
71732;SDS011;65965;43.502;3.716;2022-12-18T13:54:33;14.77;;;8.73;;
71732;SDS011;65965;43.502;3.716;2022-12-18T13:57:05;15.60;;;9.07;;
71732;SDS011;65965;43.502;3.716;2022-12-18T13:59:50;16.13;;;9.98;;
71732;SDS011;65965;43.502;3.716;2022-12-18T14:02:17;17.95;;;8.43;;
71732;SDS011;65965;43.502;3.716;2022-12-18T14:04:47;16.17;;;8.35;;
71732;SDS011;65965;43.502;3.716;2022-12-18T14:07:14;16.60;;;8.93;;
71732;SDS011;65965;43.502;3.716;2022-12-18T14:09:49;17.95;;;8.93;;
71732;SDS011;65965;43.502;3.716;2022-12-18T14:12:24;15.90;;;8.30;;
71732;SDS011;65965;43.502;3.716;2022-12-18T14:17:52;19.40;;;11.80;;
71732;SDS011;65965;43.502;3.716;2022-12-18T14:20:20;20.02;;;12.27;;
71732;SDS011;65965;43.502;3.716;2022-12-18T14:22:47;20.55;;;13.20;;
71732;SDS011;65965;43.502;3.716;2022-12-18T14:25:21;20.40;;;10.45;;
71732;SDS011;65965;43.502;3.716;2022-12-18T14:30:37;18.50;;;9.55;;
71732;SDS011;65965;43.502;3.716;2022-12-18T14:33:19;19.23;;;10.00;;
71732;SDS011;65965;43.502;3.716;2022-12-18T14:40:51;18.92;;;10.23;;
71732;SDS011;65965;43.502;3.716;2022-12-18T14:43:22;17.35;;;9.52;;
71732;SDS011;65965;43.502;3.716;2022-12-18T14:45:48;18.35;;;11.10;;
71732;SDS011;65965;43.502;3.716;2022-12-18T14:51:22;18.98;;;11.27;;
71732;SDS011;65965;43.502;3.716;2022-12-18T14:53:43;20.48;;;11.32;;
71732;SDS011;65965;43.502;3.716;2022-12-18T14:58:46;20.48;;;11.40;;
71732;SDS011;65965;43.502;3.716;2022-12-18T15:01:26;20.13;;;11.65;;
71732;SDS011;65965;43.502;3.716;2022-12-18T15:04:01;18.75;;;10.65;;
71732;SDS011;65965;43.502;3.716;2022-12-18T15:06:30;21.98;;;11.27;;
71732;SDS011;65965;43.502;3.716;2022-12-18T15:09:20;18.85;;;10.65;;
71732;SDS011;65965;43.502;3.716;2022-12-18T15:14:24;18.00;;;11.18;;
71732;SDS011;65965;43.502;3.716;2022-12-18T15:16:58;17.67;;;11.02;;
71732;SDS011;65965;43.502;3.716;2022-12-18T15:19:35;19.40;;;10.25;;
71732;SDS011;65965;43.502;3.716;2022-12-18T15:25:00;16.20;;;9.70;;
71732;SDS011;65965;43.502;3.716;2022-12-18T15:27:30;18.42;;;10.07;;
71732;SDS011;65965;43.502;3.716;2022-12-18T15:32:33;20.58;;;9.25;;
71732;SDS011;65965;43.502;3.716;2022-12-18T15:35:12;16.70;;;9.05;;
71732;SDS011;65965;43.502;3.716;2022-12-18T15:37:40;18.48;;;10.20;;
71732;SDS011;65965;43.502;3.716;2022-12-18T15:40:07;23.02;;;14.50;;
71732;SDS011;65965;43.502;3.716;2022-12-18T15:42:37;22.20;;;13.73;;
71732;SDS011;65965;43.502;3.716;2022-12-18T15:45:21;23.05;;;13.55;;
71732;SDS011;65965;43.502;3.716;2022-12-18T15:47:47;20.67;;;13.38;;
71732;SDS011;65965;43.502;3.716;2022-12-18T15:50:13;19.67;;;12.68;;
71732;SDS011;65965;43.502;3.716;2022-12-18T15:52:40;21.77;;;12.63;;
71732;SDS011;65965;43.502;3.716;2022-12-18T15:55:14;23.60;;;15.10;;
71732;SDS011;65965;43.502;3.716;2022-12-18T15:58:01;23.58;;;15.27;;
71732;SDS011;65965;43.502;3.716;2022-12-18T16:00:27;22.17;;;14.75;;
71732;SDS011;65965;43.502;3.716;2022-12-18T16:02:53;22.08;;;15.18;;
71732;SDS011;65965;43.502;3.716;2022-12-18T16:05:19;25.98;;;15.20;;
71732;SDS011;65965;43.502;3.716;2022-12-18T16:07:46;26.15;;;15.27;;
71732;SDS011;65965;43.502;3.716;2022-12-18T16:10:12;25.38;;;16.52;;
71732;SDS011;65965;43.502;3.716;2022-12-18T16:12:38;25.27;;;15.98;;
71732;SDS011;65965;43.502;3.716;2022-12-18T16:15:04;27.85;;;16.77;;
71732;SDS011;65965;43.502;3.716;2022-12-18T16:17:30;24.17;;;15.60;;
71732;SDS011;65965;43.502;3.716;2022-12-18T16:19:56;27.35;;;17.45;;
71732;SDS011;65965;43.502;3.716;2022-12-18T16:22:25;26.48;;;16.10;;
71732;SDS011;65965;43.502;3.716;2022-12-18T16:24:53;21.33;;;12.82;;
71732;SDS011;65965;43.502;3.716;2022-12-18T16:27:20;23.05;;;14.52;;
71732;SDS011;65965;43.502;3.716;2022-12-18T16:29:46;25.95;;;15.90;;
71732;SDS011;65965;43.502;3.716;2022-12-18T16:32:13;27.42;;;18.58;;
71732;SDS011;65965;43.502;3.716;2022-12-18T16:37:10;26.85;;;15.88;;
71732;SDS011;65965;43.502;3.716;2022-12-18T16:39:38;25.92;;;15.85;;
71732;SDS011;65965;43.502;3.716;2022-12-18T16:42:06;22.83;;;14.27;;
71732;SDS011;65965;43.502;3.716;2022-12-18T16:44:41;30.00;;;18.42;;
71732;SDS011;65965;43.502;3.716;2022-12-18T16:47:08;26.65;;;16.15;;
71732;SDS011;65965;43.502;3.716;2022-12-18T16:49:33;37.75;;;23.75;;
71732;SDS011;65965;43.502;3.716;2022-12-18T16:51:59;24.83;;;15.20;;
71732;SDS011;65965;43.502;3.716;2022-12-18T16:54:25;21.55;;;14.32;;
71732;SDS011;65965;43.502;3.716;2022-12-18T16:56:54;25.02;;;15.45;;
71732;SDS011;65965;43.502;3.716;2022-12-18T16:59:20;23.05;;;14.77;;
71732;SDS011;65965;43.502;3.716;2022-12-18T17:01:46;23.08;;;14.57;;
71732;SDS011;65965;43.502;3.716;2022-12-18T17:04:12;25.38;;;14.73;;
71732;SDS011;65965;43.502;3.716;2022-12-18T17:06:39;23.95;;;12.50;;
71732;SDS011;65965;43.502;3.716;2022-12-18T17:09:07;30.00;;;17.75;;
71732;SDS011;65965;43.502;3.716;2022-12-18T17:11:35;41.30;;;25.30;;
71732;SDS011;65965;43.502;3.716;2022-12-18T17:14:08;42.85;;;26.85;;
71732;SDS011;65965;43.502;3.716;2022-12-18T17:16:39;34.03;;;21.13;;